Time;durP1;ratioP1;P1;durP2;ratioP2;P2;SDS_P1;SDS_P2;PMS_P1;PMS_P2;Temp;Humidity;BMP_temperature;BMP_pressure;BME280_temperature;BME280_humidity;BME280_pressure;Samples;Min_cycle;Max_cycle;Signal;HPM_P1;HPM_P2
2021/06/13 00:01:17;;;;;;;11.90;3.77;;;13.50;99.90;;;;;;5035249;28;21100;-77
2021/06/13 00:03:43;;;;;;;5.67;3.10;;;13.50;99.90;;;;;;5034896;28;20186;-76
2021/06/13 00:06:08;;;;;;;7.00;2.90;;;13.40;99.90;;;;;;5031006;28;20174;-76
2021/06/13 00:08:34;;;;;;;4.97;3.20;;;13.40;99.90;;;;;;5011134;28;20202;-77
2021/06/13 00:11:00;;;;;;;7.93;3.30;;;13.40;99.90;;;;;;5036000;28;20201;-76
2021/06/13 00:13:30;;;;;;;6.70;3.20;;;13.30;99.90;;;;;;5037741;28;20197;-76
2021/06/13 00:15:56;;;;;;;9.93;4.00;;;13.30;99.90;;;;;;5040094;28;20459;-76
2021/06/13 00:18:22;;;;;;;5.60;2.70;;;13.30;99.90;;;;;;5036833;28;20488;-76
2021/06/13 00:20:49;;;;;;;5.13;2.77;;;13.20;99.90;;;;;;5032630;28;20603;-76
2021/06/13 00:23:15;;;;;;;6.73;4.00;;;13.30;99.90;;;;;;5033740;28;20182;-76
2021/06/13 00:25:41;;;;;;;9.87;3.93;;;13.20;99.90;;;;;;5034947;28;20455;-76
2021/06/13 00:28:07;;;;;;;2.90;2.70;;;13.20;99.90;;;;;;5032819;28;20425;-77
2021/06/13 00:30:33;;;;;;;7.20;3.90;;;13.10;99.90;;;;;;5031417;28;20514;-76
2021/06/13 00:32:59;;;;;;;5.07;3.40;;;13.10;99.90;;;;;;5020739;28;20436;-76
2021/06/13 00:35:25;;;;;;;13.77;3.53;;;13.00;99.90;;;;;;5037413;28;20431;-75
2021/06/13 00:37:51;;;;;;;8.80;3.57;;;13.10;99.90;;;;;;5035001;28;20190;-76
2021/06/13 00:40:19;;;;;;;4.33;3.10;;;13.10;99.90;;;;;;5035303;28;20432;-76
2021/06/13 00:42:45;;;;;;;8.07;3.30;;;13.10;99.90;;;;;;5032328;28;20440;-77
2021/06/13 00:45:12;;;;;;;4.03;3.00;;;13.10;99.90;;;;;;5033139;28;20898;-77
2021/06/13 00:47:38;;;;;;;4.80;3.53;;;13.10;99.90;;;;;;5031319;28;20530;-77
2021/06/13 00:50:06;;;;;;;8.67;3.67;;;13.00;99.90;;;;;;5031885;28;20472;-76
2021/06/13 00:52:32;;;;;;;6.47;3.17;;;13.10;99.90;;;;;;5031405;28;20910;-77
2021/06/13 00:54:58;;;;;;;7.03;2.90;;;13.10;99.90;;;;;;5029444;28;20490;-77
2021/06/13 00:57:23;;;;;;;6.90;3.90;;;13.00;99.90;;;;;;5031619;28;20211;-78
2021/06/13 00:59:49;;;;;;;5.43;3.40;;;13.10;99.90;;;;;;5019341;28;20190;-78
2021/06/13 01:02:15;;;;;;;6.70;4.37;;;13.10;99.90;;;;;;5030544;28;20256;-77
2021/06/13 01:04:40;;;;;;;6.33;4.00;;;13.00;99.90;;;;;;5031895;28;20821;-77
2021/06/13 01:07:09;;;;;;;13.60;4.10;;;13.00;99.90;;;;;;5030733;28;20631;-78
2021/06/13 01:09:46;;;;;;;6.37;3.67;;;12.90;99.90;;;;;;5020408;28;20198;-77
2021/06/13 01:12:31;;;;;;;10.93;3.47;;;12.90;99.90;;;;;;5029312;28;20551;-77
2021/06/13 01:15:19;;;;;;;5.30;3.17;;;12.80;99.90;;;;;;5030612;28;20436;-77
2021/06/13 01:17:51;;;;;;;6.60;2.70;;;12.80;99.90;;;;;;5036189;28;20760;-76
2021/06/13 01:20:24;;;;;;;9.90;3.63;;;12.80;99.90;;;;;;5035840;28;20436;-76
2021/06/13 01:23:07;;;;;;;10.93;3.50;;;12.80;99.90;;;;;;5029138;28;20432;-76
2021/06/13 01:25:49;;;;;;;5.77;3.03;;;12.90;99.90;;;;;;5029520;28;20555;-78
2021/06/13 01:28:52;;;;;;;6.10;3.50;;;12.90;99.90;;;;;;5025465;28;20444;-78
2021/06/13 01:31:19;;;;;;;8.00;3.57;;;13.00;99.90;;;;;;5028461;28;20439;-78
2021/06/13 01:33:48;;;;;;;8.47;3.37;;;13.10;99.90;;;;;;5025804;28;20758;-76
2021/06/13 01:36:16;;;;;;;8.50;3.30;;;13.00;99.90;;;;;;5026293;28;20429;-79
2021/06/13 01:38:45;;;;;;;5.17;3.37;;;12.90;99.90;;;;;;5028149;28;20482;-76
2021/06/13 01:41:14;;;;;;;7.57;3.50;;;12.90;99.90;;;;;;5026536;28;20430;-76
2021/06/13 01:43:40;;;;;;;4.87;3.23;;;12.90;99.90;;;;;;5023908;28;20429;-78
2021/06/13 01:46:07;;;;;;;16.00;3.80;;;12.90;99.90;;;;;;5021005;28;20507;-79
2021/06/13 01:48:35;;;;;;;4.87;3.40;;;12.90;99.90;;;;;;5031567;28;20424;-78
2021/06/13 01:51:01;;;;;;;7.03;5.73;;;13.00;99.90;;;;;;5019233;28;20818;-78
2021/06/13 01:53:29;;;;;;;4.40;3.30;;;12.90;99.90;;;;;;5030393;28;20807;-78
2021/06/13 01:55:56;;;;;;;12.73;3.00;;;12.90;99.90;;;;;;5024791;28;20435;-78
2021/06/13 01:58:22;;;;;;;4.50;3.20;;;12.90;99.90;;;;;;5026289;28;20434;-78
2021/06/13 02:00:50;;;;;;;8.23;4.80;;;12.90;99.90;;;;;;5026113;28;20794;-78
2021/06/13 02:03:18;;;;;;;5.87;3.13;;;13.00;99.90;;;;;;5024026;28;20482;-78
2021/06/13 02:05:46;;;;;;;12.60;3.30;;;13.00;99.90;;;;;;5028298;28;20425;-78
2021/06/13 02:08:13;;;;;;;5.13;2.97;;;13.00;99.90;;;;;;5027341;28;20527;-78
2021/06/13 02:10:39;;;;;;;6.17;3.80;;;12.90;99.90;;;;;;5028311;28;21040;-78
2021/06/13 02:13:06;;;;;;;6.10;4.33;;;12.80;99.90;;;;;;5022522;28;20439;-79
2021/06/13 02:15:35;;;;;;;4.90;2.80;;;12.70;99.90;;;;;;5003054;28;20436;-78
2021/06/13 02:18:03;;;;;;;4.43;3.23;;;12.70;99.90;;;;;;5030011;28;20425;-78
2021/06/13 02:20:30;;;;;;;5.90;4.33;;;12.60;99.90;;;;;;5022310;28;20443;-78
2021/06/13 02:22:57;;;;;;;9.10;2.83;;;12.60;99.90;;;;;;5026635;28;20921;-78
2021/06/13 02:25:23;;;;;;;7.17;3.00;;;12.50;99.90;;;;;;5032719;28;20433;-78
2021/06/13 02:27:57;;;;;;;3.50;2.87;;;12.50;99.90;;;;;;5027723;28;20432;-78
2021/06/13 02:30:26;;;;;;;5.40;3.40;;;12.50;99.90;;;;;;5034636;28;20925;-78
2021/06/13 02:32:55;;;;;;;4.77;3.20;;;12.50;99.90;;;;;;5029533;28;20520;-78
2021/06/13 02:35:23;;;;;;;6.57;2.90;;;12.50;99.90;;;;;;5029230;28;20432;-78
2021/06/13 02:37:51;;;;;;;6.80;2.53;;;12.50;99.90;;;;;;5035172;28;20435;-78
2021/06/13 02:40:17;;;;;;;9.47;4.03;;;12.60;99.90;;;;;;5028380;28;20901;-78
2021/06/13 02:42:43;;;;;;;7.17;3.37;;;12.60;99.90;;;;;;5029931;28;20436;-78
2021/06/13 02:45:11;;;;;;;12.07;2.70;;;12.60;99.90;;;;;;5030507;28;20742;-78
2021/06/13 02:47:38;;;;;;;4.27;2.73;;;12.60;99.90;;;;;;5029810;28;20174;-78
2021/06/13 02:50:08;;;;;;;4.90;2.80;;;12.60;99.90;;;;;;5032634;28;20463;-78
2021/06/13 02:53:01;;;;;;;5.70;2.73;;;12.60;99.90;;;;;;5033142;28;20436;-78
2021/06/13 02:55:41;;;;;;;5.70;3.43;;;12.70;99.90;;;;;;5029251;28;20507;-78
2021/06/13 02:58:31;;;;;;;8.57;3.20;;;12.70;99.90;;;;;;5032555;28;20420;-79
2021/06/13 03:00:57;;;;;;;5.20;2.90;;;12.80;99.90;;;;;;5028660;28;20424;-79
2021/06/13 03:03:26;;;;;;;14.17;3.80;;;12.80;99.90;;;;;;5021515;28;20432;-78
2021/06/13 03:05:53;;;;;;;9.00;3.37;;;12.70;99.90;;;;;;5032337;28;20494;-78
2021/06/13 03:08:20;;;;;;;3.93;3.00;;;12.80;99.90;;;;;;5033366;28;20528;-79
2021/06/13 03:10:48;;;;;;;6.70;3.43;;;12.70;99.90;;;;;;5030483;28;20472;-78
2021/06/13 03:13:16;;;;;;;3.93;2.93;;;12.80;99.90;;;;;;5023750;28;20424;-78
2021/06/13 03:15:42;;;;;;;10.27;3.30;;;12.80;99.90;;;;;;5030677;28;20511;-78
2021/06/13 03:18:10;;;;;;;4.00;2.87;;;12.80;99.90;;;;;;5032909;28;20436;-78
2021/06/13 03:20:37;;;;;;;5.90;2.90;;;12.70;99.90;;;;;;5030932;28;21001;-78
2021/06/13 03:23:03;;;;;;;6.80;3.03;;;12.80;99.90;;;;;;5029668;28;20758;-78
2021/06/13 03:25:30;;;;;;;9.13;3.57;;;12.80;99.90;;;;;;5030047;28;20432;-78
2021/06/13 03:27:56;;;;;;;12.03;3.90;;;12.80;99.90;;;;;;5030650;28;20925;-78
2021/06/13 03:30:22;;;;;;;6.10;3.37;;;12.80;99.90;;;;;;5032463;28;20899;-77
2021/06/13 03:32:48;;;;;;;5.63;3.27;;;12.70;99.90;;;;;;5022697;28;20440;-78
2021/06/13 03:35:14;;;;;;;7.27;3.70;;;12.70;99.90;;;;;;5029121;28;20436;-78
2021/06/13 03:37:41;;;;;;;5.67;3.37;;;12.80;99.90;;;;;;5030753;28;20261;-78
2021/06/13 03:40:08;;;;;;;8.40;3.97;;;12.80;99.90;;;;;;5035290;28;20538;-78
2021/06/13 03:42:35;;;;;;;7.63;3.83;;;12.80;99.90;;;;;;5017729;28;20436;-78
2021/06/13 03:45:01;;;;;;;7.23;3.20;;;12.80;99.90;;;;;;5031277;28;20440;-78
2021/06/13 03:47:30;;;;;;;5.73;3.47;;;12.70;99.90;;;;;;5004591;28;20436;-78
2021/06/13 03:49:56;;;;;;;6.67;3.40;;;12.70;99.90;;;;;;5029752;28;20464;-78
2021/06/13 03:52:22;;;;;;;9.80;3.70;;;12.70;99.90;;;;;;5030639;28;20435;-78
2021/06/13 03:54:49;;;;;;;8.63;3.97;;;12.70;99.90;;;;;;5031995;28;20785;-78
2021/06/13 03:57:16;;;;;;;9.33;3.53;;;12.80;99.90;;;;;;5027341;28;20425;-78
2021/06/13 03:59:45;;;;;;;10.60;3.10;;;12.80;99.90;;;;;;5030295;28;20436;-78
2021/06/13 04:02:11;;;;;;;5.77;3.30;;;12.80;99.90;;;;;;5027087;28;20455;-78
2021/06/13 04:04:42;;;;;;;6.50;3.53;;;12.90;99.90;;;;;;5026469;28;20440;-78
2021/06/13 04:07:09;;;;;;;4.93;3.27;;;12.80;99.90;;;;;;5032305;28;20448;-78
2021/06/13 04:09:39;;;;;;;5.97;3.40;;;12.90;99.90;;;;;;5029540;28;20471;-78
2021/06/13 04:12:06;;;;;;;8.47;3.70;;;12.90;99.90;;;;;;5027431;28;20436;-78
2021/06/13 04:14:32;;;;;;;7.40;3.63;;;12.90;99.90;;;;;;5005621;28;20440;-79
2021/06/13 04:16:59;;;;;;;9.57;4.20;;;12.90;99.90;;;;;;5029792;28;20840;-78
2021/06/13 04:19:25;;;;;;;4.30;2.90;;;12.90;99.90;;;;;;5030308;28;20443;-78
2021/06/13 04:21:51;;;;;;;8.90;3.17;;;12.90;99.90;;;;;;5016652;28;20987;-78
2021/06/13 04:24:17;;;;;;;4.33;3.10;;;13.00;99.90;;;;;;5013831;28;20440;-78
2021/06/13 04:26:43;;;;;;;5.90;2.87;;;13.00;99.90;;;;;;5010303;28;20767;-78
2021/06/13 04:29:11;;;;;;;11.73;3.60;;;13.10;99.90;;;;;;5003599;28;20547;-78
2021/06/13 04:31:37;;;;;;;6.97;3.00;;;13.10;99.90;;;;;;5025853;28;20914;-78
2021/06/13 04:34:03;;;;;;;5.50;3.60;;;13.10;99.90;;;;;;5026485;28;20428;-78
2021/06/13 04:36:28;;;;;;;5.70;3.63;;;13.10;99.90;;;;;;5028621;28;20450;-78
2021/06/13 04:38:54;;;;;;;7.67;3.23;;;13.10;99.90;;;;;;5029325;28;20182;-78
2021/06/13 04:41:20;;;;;;;12.37;3.30;;;13.10;99.90;;;;;;5026663;28;20747;-78
2021/06/13 04:43:46;;;;;;;5.47;3.23;;;13.20;99.90;;;;;;5029697;28;20174;-78
2021/06/13 04:46:14;;;;;;;9.50;3.10;;;13.10;99.90;;;;;;5028642;28;20423;-78
2021/06/13 04:48:40;;;;;;;5.83;3.10;;;13.10;99.90;;;;;;5032032;28;20231;-78
2021/06/13 04:51:09;;;;;;;10.67;3.40;;;13.10;99.90;;;;;;5025421;28;20432;-78
2021/06/13 04:53:47;;;;;;;5.63;3.10;;;13.10;99.90;;;;;;5030604;28;20425;-78
2021/06/13 04:56:33;;;;;;;6.37;3.20;;;13.10;99.90;;;;;;5027666;28;20483;-78
2021/06/13 04:59:00;;;;;;;12.60;3.13;;;13.10;99.90;;;;;;5017546;28;20432;-78
2021/06/13 05:01:26;;;;;;;5.60;3.80;;;13.10;99.90;;;;;;5024780;28;20524;-78
2021/06/13 05:03:53;;;;;;;6.50;3.93;;;13.10;99.90;;;;;;5025879;28;20784;-78
2021/06/13 05:06:19;;;;;;;7.07;3.77;;;13.20;99.90;;;;;;5030322;28;20456;-78
2021/06/13 05:08:45;;;;;;;7.20;3.40;;;13.30;99.90;;;;;;5028493;28;20452;-78
2021/06/13 05:11:11;;;;;;;11.30;4.00;;;13.30;99.90;;;;;;5027211;28;20511;-78
2021/06/13 05:13:37;;;;;;;5.40;3.13;;;13.40;99.90;;;;;;5024914;28;20188;-78
2021/06/13 05:16:03;;;;;;;7.17;4.43;;;13.40;99.90;;;;;;5003822;28;20506;-78
2021/06/13 05:18:29;;;;;;;4.47;2.60;;;13.40;99.90;;;;;;5030807;28;20424;-78
2021/06/13 05:20:55;;;;;;;7.90;3.50;;;13.50;99.90;;;;;;5030402;28;20427;-78
2021/06/13 05:23:22;;;;;;;5.23;3.47;;;13.50;99.90;;;;;;5028917;28;20174;-78
2021/06/13 05:25:49;;;;;;;6.33;3.13;;;13.40;99.90;;;;;;5026478;28;20185;-78
2021/06/13 05:28:15;;;;;;;5.50;3.30;;;13.40;99.90;;;;;;5024709;28;20435;-78
2021/06/13 05:30:41;;;;;;;6.63;2.80;;;13.40;99.90;;;;;;5012396;28;20453;-78
2021/06/13 05:33:08;;;;;;;7.53;4.00;;;13.40;99.90;;;;;;5024781;28;20201;-78
2021/06/13 05:35:35;;;;;;;6.17;2.60;;;13.40;99.90;;;;;;5027532;28;20447;-78
2021/06/13 05:38:00;;;;;;;9.40;3.33;;;13.50;99.90;;;;;;5028362;28;20523;-78
2021/06/13 05:40:27;;;;;;;4.03;2.80;;;13.50;99.90;;;;;;5028012;28;20594;-78
2021/06/13 05:42:53;;;;;;;9.47;3.00;;;13.50;99.90;;;;;;5004700;28;20552;-78
2021/06/13 05:45:21;;;;;;;13.40;3.30;;;13.60;99.90;;;;;;5026765;28;20459;-78
2021/06/13 05:47:47;;;;;;;4.10;2.83;;;13.70;99.90;;;;;;5008358;28;20189;-78
2021/06/13 05:50:14;;;;;;;10.33;3.07;;;13.80;99.90;;;;;;5027702;28;20453;-78
2021/06/13 05:52:40;;;;;;;5.13;3.17;;;13.90;99.90;;;;;;5029736;28;21458;-78
2021/06/13 05:55:08;;;;;;;6.17;3.37;;;14.00;99.90;;;;;;5029073;28;20439;-78
2021/06/13 05:57:34;;;;;;;9.40;3.37;;;14.10;99.90;;;;;;5029217;28;20429;-78
2021/06/13 06:00:05;;;;;;;10.13;3.27;;;14.20;99.90;;;;;;5030807;28;20443;-78
2021/06/13 06:02:30;;;;;;;9.77;4.07;;;14.20;99.90;;;;;;5028677;28;20444;-78
2021/06/13 06:04:56;;;;;;;10.10;3.57;;;14.20;99.90;;;;;;5034423;28;20440;-79
2021/06/13 06:07:22;;;;;;;4.73;3.30;;;14.20;99.90;;;;;;5025158;28;20186;-78
2021/06/13 06:09:47;;;;;;;11.23;3.37;;;14.10;99.90;;;;;;5029702;28;20209;-78
2021/06/13 06:12:13;;;;;;;7.23;3.03;;;14.10;99.90;;;;;;5032093;28;20517;-78
2021/06/13 06:14:40;;;;;;;6.67;3.27;;;14.00;99.90;;;;;;5033278;28;20495;-78
2021/06/13 06:17:06;;;;;;;5.50;3.13;;;14.10;99.90;;;;;;5017061;28;21810;-78
2021/06/13 06:19:31;;;;;;;7.97;3.50;;;14.00;99.90;;;;;;5028907;28;20451;-77
2021/06/13 06:21:57;;;;;;;11.83;3.83;;;14.10;99.90;;;;;;5018165;28;20285;-78
2021/06/13 06:24:23;;;;;;;12.80;3.40;;;14.10;99.90;;;;;;5026711;28;20227;-78
2021/06/13 06:26:49;;;;;;;6.30;3.03;;;14.10;99.90;;;;;;5032668;28;20443;-78
2021/06/13 06:29:15;;;;;;;8.30;4.03;;;14.20;99.90;;;;;;5016960;28;20273;-78
2021/06/13 06:31:40;;;;;;;7.53;3.30;;;14.40;99.90;;;;;;5029152;28;20514;-78
2021/06/13 06:34:06;;;;;;;11.10;5.33;;;14.40;99.90;;;;;;5028786;28;20424;-78
2021/06/13 06:36:32;;;;;;;8.17;3.43;;;14.60;99.90;;;;;;5023819;28;20200;-78
2021/06/13 06:38:58;;;;;;;10.50;3.30;;;14.70;99.90;;;;;;5027675;28;20909;-78
2021/06/13 06:41:24;;;;;;;8.17;3.37;;;14.80;99.90;;;;;;5026914;28;20901;-78
2021/06/13 06:43:51;;;;;;;8.60;3.60;;;15.00;99.90;;;;;;5025574;28;20263;-79
2021/06/13 06:46:17;;;;;;;8.30;3.70;;;15.00;99.90;;;;;;5011994;28;20528;-78
2021/06/13 06:48:43;;;;;;;7.33;2.97;;;15.00;99.90;;;;;;5028690;28;20436;-79
2021/06/13 06:51:09;;;;;;;8.33;2.80;;;15.00;99.90;;;;;;5029532;28;20178;-79
2021/06/13 06:53:35;;;;;;;5.70;3.30;;;15.00;99.90;;;;;;5030393;28;20444;-79
2021/06/13 06:56:00;;;;;;;4.63;2.93;;;15.20;99.90;;;;;;5030039;28;20514;-79
2021/06/13 06:58:26;;;;;;;4.53;3.80;;;15.40;99.90;;;;;;5002785;28;20638;-78
2021/06/13 07:00:52;;;;;;;8.57;3.57;;;15.60;99.90;;;;;;5026521;28;20255;-79
2021/06/13 07:03:17;;;;;;;18.47;4.10;;;15.50;99.90;;;;;;5029812;28;20661;-79
2021/06/13 07:05:43;;;;;;;8.40;3.63;;;15.40;99.90;;;;;;5031116;28;20186;-77
2021/06/13 07:08:09;;;;;;;8.80;3.20;;;15.40;99.90;;;;;;5043829;28;20186;-78
2021/06/13 07:10:34;;;;;;;7.97;3.40;;;15.40;99.90;;;;;;5044001;28;20287;-77
2021/06/13 07:13:00;;;;;;;11.00;4.23;;;15.40;99.90;;;;;;5038809;28;20194;-77
2021/06/13 07:15:26;;;;;;;8.90;3.33;;;15.40;99.90;;;;;;5039887;28;23004;-78
2021/06/13 07:17:53;;;;;;;8.53;3.50;;;15.40;99.90;;;;;;5036879;28;20174;-77
2021/06/13 07:20:19;;;;;;;7.60;3.40;;;15.50;99.90;;;;;;5031088;28;20558;-79
2021/06/13 07:22:46;;;;;;;4.43;3.27;;;15.60;99.90;;;;;;5024984;28;20432;-79
2021/06/13 07:25:12;;;;;;;9.27;3.93;;;15.60;99.90;;;;;;5039718;28;20490;-79
2021/06/13 07:27:39;;;;;;;9.93;3.30;;;15.70;99.90;;;;;;5025927;28;20991;-79
2021/06/13 07:30:08;;;;;;;6.80;3.13;;;15.60;99.90;;;;;;5022872;28;20548;-79
2021/06/13 07:32:34;;;;;;;9.33;4.30;;;15.70;99.90;;;;;;5022018;28;20482;-79
2021/06/13 07:35:00;;;;;;;7.63;3.43;;;15.50;99.90;;;;;;5025584;28;20472;-78
2021/06/13 07:37:25;;;;;;;7.90;3.63;;;15.50;99.90;;;;;;5027259;28;20477;-79
2021/06/13 07:39:51;;;;;;;7.30;3.00;;;15.60;99.90;;;;;;5022158;28;20611;-79
2021/06/13 07:42:17;;;;;;;6.30;3.40;;;15.90;99.90;;;;;;5030023;28;20190;-78
2021/06/13 07:44:43;;;;;;;4.40;3.40;;;16.00;99.90;;;;;;5030048;28;20186;-79
2021/06/13 07:47:08;;;;;;;6.90;3.10;;;16.10;99.90;;;;;;5030951;28;20256;-79
2021/06/13 07:49:34;;;;;;;11.17;3.00;;;15.90;99.90;;;;;;5031800;28;20555;-78
2021/06/13 07:52:00;;;;;;;8.87;3.43;;;15.70;99.90;;;;;;5029787;28;20236;-78
2021/06/13 07:54:28;;;;;;;5.73;3.07;;;15.80;99.90;;;;;;5017827;28;20232;-79
2021/06/13 07:56:53;;;;;;;6.80;3.53;;;16.10;99.90;;;;;;5030791;28;20209;-79
2021/06/13 07:59:19;;;;;;;9.30;2.80;;;16.30;99.90;;;;;;5030632;28;20476;-79
2021/06/13 08:01:45;;;;;;;11.27;3.27;;;16.40;99.90;;;;;;5029397;28;20895;-79
2021/06/13 08:04:11;;;;;;;5.77;3.37;;;16.30;99.90;;;;;;5028197;28;20189;-78
2021/06/13 08:06:37;;;;;;;4.90;2.77;;;16.30;99.90;;;;;;5030712;28;20201;-80
2021/06/13 08:09:03;;;;;;;7.53;3.00;;;16.30;99.90;;;;;;5028971;28;21169;-80
2021/06/13 08:11:32;;;;;;;7.83;3.30;;;16.30;99.90;;;;;;5031220;28;20192;-77
2021/06/13 08:13:58;;;;;;;5.30;2.40;;;16.30;99.90;;;;;;5038660;28;20873;-77
2021/06/13 08:16:24;;;;;;;6.87;2.90;;;16.20;99.90;;;;;;5038700;28;20432;-77
2021/06/13 08:18:50;;;;;;;4.77;2.90;;;16.20;99.90;;;;;;5014452;28;20451;-78
2021/06/13 08:21:16;;;;;;;6.07;3.17;;;16.30;99.90;;;;;;5032740;28;20182;-78
2021/06/13 08:23:41;;;;;;;6.70;2.87;;;16.50;99.90;;;;;;5022219;28;20181;-78
2021/06/13 08:26:07;;;;;;;15.23;3.10;;;16.50;99.90;;;;;;5029338;28;20515;-78
2021/06/13 08:28:33;;;;;;;6.80;2.67;;;16.80;99.90;;;;;;5035052;28;20578;-77
2021/06/13 08:30:59;;;;;;;4.70;2.93;;;16.80;99.90;;;;;;5036093;28;20181;-78
2021/06/13 08:33:25;;;;;;;6.50;3.00;;;16.90;99.90;;;;;;5033698;28;20256;-78
2021/06/13 08:35:51;;;;;;;11.13;3.40;;;17.00;99.90;;;;;;5028404;28;20429;-79
2021/06/13 08:38:18;;;;;;;5.40;2.83;;;17.10;99.90;;;;;;5024399;28;20181;-79
2021/06/13 08:40:44;;;;;;;6.27;2.93;;;17.00;99.90;;;;;;5019032;28;20831;-79
2021/06/13 08:43:09;;;;;;;13.47;4.00;;;17.00;99.90;;;;;;5027820;28;20416;-79
2021/06/13 08:45:36;;;;;;;5.77;3.07;;;17.00;99.90;;;;;;5029376;28;20495;-79
2021/06/13 08:48:06;;;;;;;3.73;3.30;;;17.10;99.90;;;;;;5029953;28;20224;-79
2021/06/13 08:50:33;;;;;;;7.10;3.70;;;17.20;99.90;;;;;;5019769;28;20849;-79
2021/06/13 08:52:59;;;;;;;5.13;2.97;;;17.10;99.90;;;;;;5030794;28;20417;-79
2021/06/13 08:55:25;;;;;;;6.40;3.20;;;17.10;99.90;;;;;;5030830;28;20415;-79
2021/06/13 08:57:52;;;;;;;6.30;3.60;;;17.30;99.90;;;;;;5031758;28;20289;-79
2021/06/13 09:00:23;;;;;;;4.60;3.03;;;17.50;99.90;;;;;;5032850;28;20181;-79
2021/06/13 09:02:49;;;;;;;12.97;2.90;;;17.70;99.90;;;;;;5023226;28;20511;-79
2021/06/13 09:05:19;;;;;;;4.80;3.00;;;17.80;99.90;;;;;;5032121;28;20427;-79
2021/06/13 09:07:55;;;;;;;9.97;3.20;;;17.80;99.90;;;;;;5031770;28;20436;-79
2021/06/13 09:10:25;;;;;;;5.30;3.20;;;17.70;99.90;;;;;;5032523;28;20523;-79
2021/06/13 09:13:11;;;;;;;7.77;4.03;;;17.60;99.90;;;;;;5032364;28;20419;-80
2021/06/13 09:15:42;;;;;;;8.10;3.00;;;17.80;99.90;;;;;;5032882;28;20543;-79
2021/06/13 09:18:10;;;;;;;4.83;3.27;;;18.10;99.90;;;;;;5032375;28;20504;-80
2021/06/13 09:20:35;;;;;;;4.43;3.40;;;18.20;99.90;;;;;;5032410;28;20478;-80
2021/06/13 09:23:15;;;;;;;4.60;3.50;;;18.20;99.90;;;;;;5032485;28;20790;-80
2021/06/13 09:25:42;;;;;;;4.23;3.37;;;18.30;99.90;;;;;;5022032;28;20183;-80
2021/06/13 09:28:21;;;;;;;3.50;2.60;;;18.30;99.90;;;;;;5022854;28;20421;-79
2021/06/13 09:30:53;;;;;;;5.90;2.90;;;18.10;99.90;;;;;;5032439;28;20444;-79
2021/06/13 09:33:32;;;;;;;10.70;3.77;;;18.00;99.90;;;;;;5032170;28;20432;-79
2021/06/13 09:36:00;;;;;;;4.27;3.13;;;17.70;99.90;;;;;;5031846;28;20401;-79
2021/06/13 09:38:27;;;;;;;6.87;3.47;;;17.80;99.90;;;;;;5022364;28;20776;-79
2021/06/13 09:41:10;;;;;;;6.00;3.20;;;18.10;99.90;;;;;;5032084;28;20495;-79
2021/06/13 09:43:47;;;;;;;8.50;3.63;;;18.50;99.90;;;;;;5031980;28;20420;-79
2021/06/13 09:46:19;;;;;;;5.70;3.50;;;19.00;99.90;;;;;;5031984;28;20396;-79
2021/06/13 09:48:46;;;;;;;6.37;3.40;;;19.20;99.90;;;;;;5032021;28;20455;-80
2021/06/13 09:51:20;;;;;;;7.00;3.80;;;19.10;99.90;;;;;;5031876;28;20408;-79
2021/06/13 09:53:47;;;;;;;6.73;3.10;;;18.90;99.90;;;;;;5032028;28;20411;-80
2021/06/13 09:56:23;;;;;;;7.10;3.23;;;19.00;99.90;;;;;;5032247;28;20525;-79
2021/06/13 09:58:55;;;;;;;8.80;3.33;;;18.90;99.90;;;;;;5031824;28;20400;-80
2021/06/13 10:01:22;;;;;;;4.83;3.00;;;19.00;99.90;;;;;;5022643;28;20444;-79
2021/06/13 10:03:48;;;;;;;5.10;3.47;;;19.30;99.90;;;;;;5031895;28;20890;-79
2021/06/13 10:06:18;;;;;;;4.20;3.10;;;19.30;99.90;;;;;;5031755;28;20405;-80
2021/06/13 10:08:45;;;;;;;7.50;3.40;;;19.10;99.90;;;;;;5031623;28;20400;-79
2021/06/13 10:11:11;;;;;;;4.50;3.53;;;19.00;99.90;;;;;;5032013;28;20555;-79
2021/06/13 10:13:40;;;;;;;4.70;3.20;;;19.10;99.90;;;;;;5032820;28;20511;-79
2021/06/13 10:16:08;;;;;;;5.37;3.10;;;19.40;99.90;;;;;;5031506;28;20408;-80
2021/06/13 10:18:36;;;;;;;6.77;3.37;;;19.40;99.90;;;;;;5031810;28;20554;-79
2021/06/13 10:21:11;;;;;;;4.97;3.80;;;19.50;99.90;;;;;;5031409;28;20401;-79
2021/06/13 10:23:40;;;;;;;4.47;2.40;;;19.30;99.90;;;;;;5031731;28;20408;-80
2021/06/13 10:26:07;;;;;;;8.03;3.00;;;19.60;99.90;;;;;;5031493;28;20397;-80
2021/06/13 10:28:34;;;;;;;3.87;3.30;;;20.00;99.90;;;;;;5031512;28;20979;-80
2021/06/13 10:31:01;;;;;;;4.80;3.13;;;20.00;99.90;;;;;;5022157;28;20953;-79
2021/06/13 10:33:27;;;;;;;9.77;2.80;;;19.90;99.90;;;;;;5031723;28;20562;-80
2021/06/13 10:36:01;;;;;;;4.73;2.70;;;19.30;99.90;;;;;;5031869;28;20881;-79
2021/06/13 10:38:30;;;;;;;4.67;3.53;;;19.30;99.90;;;;;;5031705;28;20420;-79
2021/06/13 10:40:57;;;;;;;4.17;3.43;;;19.70;99.90;;;;;;5021991;28;20462;-80
2021/06/13 10:43:28;;;;;;;3.73;3.03;;;19.80;99.90;;;;;;5031825;28;20881;-80
2021/06/13 10:46:03;;;;;;;4.77;3.47;;;19.90;99.90;;;;;;5034663;28;20412;-80
2021/06/13 10:48:40;;;;;;;7.17;3.20;;;20.00;99.90;;;;;;5034949;28;20780;-80
2021/06/13 10:51:30;;;;;;;4.07;2.80;;;19.50;99.90;;;;;;5025337;28;20416;-80
2021/06/13 10:54:18;;;;;;;3.30;2.93;;;19.40;99.90;;;;;;5034967;28;20404;-80
2021/06/13 10:56:44;;;;;;;4.60;2.67;;;19.60;99.90;;;;;;5034804;28;20405;-80
2021/06/13 10:59:15;;;;;;;5.73;3.63;;;19.60;99.90;;;;;;5035142;28;20412;-80
2021/06/13 11:02:10;;;;;;;5.63;3.90;;;19.50;99.90;;;;;;5034132;28;20170;-80
2021/06/13 11:04:54;;;;;;;4.67;3.23;;;19.60;99.90;;;;;;5034702;28;20408;-80
2021/06/13 11:07:29;;;;;;;4.23;3.53;;;20.10;99.90;;;;;;5034365;28;20452;-80
2021/06/13 11:10:16;;;;;;;5.90;3.30;;;20.30;99.90;;;;;;5034679;28;20456;-80
2021/06/13 11:13:01;;;;;;;5.70;4.70;;;20.50;99.90;;;;;;5034767;28;20400;-80
2021/06/13 11:15:39;;;;;;;7.03;3.50;;;20.70;99.90;;;;;;5035073;28;20400;-80
2021/06/13 11:18:14;;;;;;;4.07;3.27;;;21.00;99.90;;;;;;5034879;28;20392;-80
2021/06/13 11:20:48;;;;;;;6.80;3.10;;;21.10;99.90;;;;;;5034345;28;20901;-80
2021/06/13 11:23:23;;;;;;;4.33;3.33;;;21.10;99.90;;;;;;5034369;28;20746;-81
2021/06/13 11:25:51;;;;;;;3.63;3.00;;;20.90;99.90;;;;;;5034759;28;20454;-81
2021/06/13 11:28:27;;;;;;;4.50;3.63;;;21.10;99.90;;;;;;5034330;28;20420;-80
2021/06/13 11:31:00;;;;;;;6.37;3.17;;;21.10;99.90;;;;;;5033851;28;20452;-80
2021/06/13 11:33:34;;;;;;;6.80;3.07;;;21.20;99.90;;;;;;5034025;28;20785;-80
2021/06/13 11:36:17;;;;;;;4.43;3.10;;;21.20;99.90;;;;;;5034477;28;20412;-80
2021/06/13 11:38:47;;;;;;;3.47;2.73;;;21.30;99.90;;;;;;5024173;28;20917;-80
2021/06/13 11:41:25;;;;;;;5.70;3.30;;;21.00;99.90;;;;;;5033437;28;20499;-80
2021/06/13 11:43:52;;;;;;;4.70;2.80;;;21.30;99.90;;;;;;5033614;28;20499;-81
2021/06/13 11:46:33;;;;;;;8.47;2.67;;;21.40;99.90;;;;;;5009001;28;20482;-80
2021/06/13 11:48:59;;;;;;;5.53;3.60;;;21.50;99.90;;;;;;5033166;28;20462;-80
2021/06/13 11:51:25;;;;;;;6.17;2.90;;;21.70;99.90;;;;;;5034234;28;20415;-81
2021/06/13 11:54:05;;;;;;;3.93;3.10;;;21.80;99.90;;;;;;5034112;28;20409;-81
2021/06/13 11:56:31;;;;;;;9.33;3.23;;;21.90;99.90;;;;;;5032559;28;20400;-81
2021/06/13 11:59:00;;;;;;;4.40;3.33;;;21.80;99.90;;;;;;5040404;28;20470;-81
2021/06/13 12:01:27;;;;;;;5.87;3.20;;;21.60;99.90;;;;;;5008125;28;20209;-80
2021/06/13 12:03:54;;;;;;;8.23;3.53;;;21.10;99.90;;;;;;5033596;28;20413;-80
2021/06/13 12:06:21;;;;;;;6.97;3.57;;;21.20;99.90;;;;;;5033570;28;20510;-80
2021/06/13 12:08:49;;;;;;;6.73;3.30;;;21.70;99.90;;;;;;5033819;28;20408;-80
2021/06/13 12:11:40;;;;;;;3.43;3.07;;;22.00;99.90;;;;;;5033464;28;20836;-80
2021/06/13 12:14:34;;;;;;;9.23;4.00;;;21.70;99.90;;;;;;5032730;28;20483;-81
2021/06/13 12:17:04;;;;;;;5.63;3.13;;;21.80;99.90;;;;;;5031469;28;20404;-81
2021/06/13 12:19:35;;;;;;;5.23;3.53;;;22.20;99.90;;;;;;5032875;28;20736;-81
2021/06/13 12:22:15;;;;;;;4.23;2.90;;;22.50;99.90;;;;;;5032870;28;20419;-81
2021/06/13 12:27:22;;;;;;;3.40;2.70;;;22.70;99.90;;;;;;5032616;28;20427;-81
2021/06/13 12:29:55;;;;;;;4.63;2.30;;;22.60;99.90;;;;;;5032999;28;20475;-80
2021/06/13 12:32:21;;;;;;;3.67;3.13;;;22.30;99.90;;;;;;5033067;28;20400;-80
2021/06/13 12:34:54;;;;;;;3.83;2.93;;;22.10;99.90;;;;;;5033071;28;20401;-80
2021/06/13 12:37:24;;;;;;;6.93;2.97;;;22.30;99.90;;;;;;5039882;28;20424;-80
2021/06/13 12:40:01;;;;;;;3.50;2.40;;;22.50;99.90;;;;;;5033362;28;20401;-81
2021/06/13 12:42:28;;;;;;;3.63;3.33;;;22.50;99.90;;;;;;5033031;28;20424;-81
2021/06/13 12:45:10;;;;;;;6.60;3.30;;;22.70;99.90;;;;;;5033178;28;20555;-81
2021/06/13 12:47:38;;;;;;;4.47;3.00;;;22.90;99.90;;;;;;5033174;28;20852;-81
2021/06/13 12:50:06;;;;;;;4.47;2.83;;;23.00;99.90;;;;;;5032964;28;20452;-80
2021/06/13 12:52:33;;;;;;;4.90;3.73;;;23.00;99.90;;;;;;5032877;28;20424;-80
2021/06/13 12:55:07;;;;;;;4.00;3.10;;;23.10;99.90;;;;;;5032940;28;20412;-81
2021/06/13 12:57:35;;;;;;;4.40;3.10;;;23.30;99.90;;;;;;5032510;28;20434;-81